Time;durP1;ratioP1;P1;durP2;ratioP2;P2;SDS_P1;SDS_P2;PMS_P1;PMS_P2;Temp;Humidity;BMP_temperature;BMP_pressure;BME280_temperature;BME280_humidity;BME280_pressure;Samples;Min_cycle;Max_cycle;Signal;HPM_P1;HPM_P2
2023/06/10 00:01:27;;;;;;;5.68;4.63;;;;;;;;;;5069553;28;20286;-90
2023/06/10 00:03:55;;;;;;;4.45;4.10;;;;;;;;;;5079787;28;20205;-90
2023/06/10 00:06:24;;;;;;;4.50;4.13;;;;;;;;;;5071814;28;20203;-90
2023/06/10 00:08:51;;;;;;;4.78;4.38;;;;;;;;;;5067062;28;20203;-91
2023/06/10 00:11:18;;;;;;;6.10;4.80;;;;;;;;;;5067898;28;20309;-90
2023/06/10 00:13:45;;;;;;;4.75;4.43;;;;;;;;;;5057217;28;20209;-91
2023/06/10 00:16:40;;;;;;;4.97;4.57;;;;;;;;;;5073672;28;20203;-90
2023/06/10 00:19:09;;;;;;;4.85;4.55;;;;;;;;;;5035680;28;20230;-91
2023/06/10 00:21:40;;;;;;;4.80;4.43;;;;;;;;;;5069810;28;20235;-90
2023/06/10 00:24:11;;;;;;;5.15;4.50;;;;;;;;;;5067789;28;20292;-90
2023/06/10 00:26:39;;;;;;;5.20;4.78;;;;;;;;;;5070736;28;20199;-90
2023/06/10 00:29:07;;;;;;;4.90;4.50;;;;;;;;;;5073097;28;20288;-90
2023/06/10 00:31:34;;;;;;;4.80;4.40;;;;;;;;;;5072469;28;20233;-90
2023/06/10 00:34:02;;;;;;;5.10;4.40;;;;;;;;;;5072288;28;20206;-91
2023/06/10 00:36:31;;;;;;;5.30;4.80;;;;;;;;;;5076624;28;20199;-90
2023/06/10 00:38:58;;;;;;;5.20;4.70;;;;;;;;;;5073523;28;20203;-91
2023/06/10 00:41:26;;;;;;;4.88;4.35;;;;;;;;;;5071846;28;20191;-91
2023/06/10 00:43:53;;;;;;;5.07;4.60;;;;;;;;;;5063317;28;20218;-90
2023/06/10 00:46:21;;;;;;;4.70;4.38;;;;;;;;;;5066578;28;20217;-90
2023/06/10 00:48:48;;;;;;;4.85;4.45;;;;;;;;;;5068891;28;20203;-91
2023/06/10 00:51:17;;;;;;;5.45;4.95;;;;;;;;;;5069762;28;20222;-91
2023/06/10 00:53:47;;;;;;;4.80;4.45;;;;;;;;;;5070430;28;20199;-91
2023/06/10 00:56:26;;;;;;;4.90;4.50;;;;;;;;;;5046076;28;20219;-90
2023/06/10 00:58:54;;;;;;;6.05;4.85;;;;;;;;;;5087848;28;20205;-91
2023/06/10 01:01:21;;;;;;;5.03;4.53;;;;;;;;;;5055828;28;20195;-91
2023/06/10 01:03:49;;;;;;;4.90;4.47;;;;;;;;;;5071624;28;20199;-90
2023/06/10 01:06:21;;;;;;;5.28;4.80;;;;;;;;;;5072947;28;20195;-91
2023/06/10 01:08:54;;;;;;;5.43;4.78;;;;;;;;;;5070655;28;20243;-91
2023/06/10 01:11:23;;;;;;;5.18;4.65;;;;;;;;;;5074292;28;20227;-90
2023/06/10 01:13:52;;;;;;;4.95;4.55;;;;;;;;;;5074137;28;20207;-91
2023/06/10 01:16:19;;;;;;;5.22;4.72;;;;;;;;;;5074170;28;20210;-90
2023/06/10 01:18:46;;;;;;;5.18;4.60;;;;;;;;;;5071194;28;20231;-91
2023/06/10 01:21:17;;;;;;;5.20;4.80;;;;;;;;;;5072078;28;20210;-91
2023/06/10 01:23:44;;;;;;;5.38;4.90;;;;;;;;;;5055308;28;20218;-91
2023/06/10 01:26:13;;;;;;;4.70;4.35;;;;;;;;;;5054201;28;20215;-90
2023/06/10 01:28:43;;;;;;;5.00;4.63;;;;;;;;;;5071294;28;20198;-91
2023/06/10 01:31:15;;;;;;;4.70;4.40;;;;;;;;;;5071402;28;20218;-91
2023/06/10 01:33:44;;;;;;;5.68;4.68;;;;;;;;;;5077783;28;20202;-91
2023/06/10 01:36:12;;;;;;;5.05;4.63;;;;;;;;;;5058547;28;20268;-91
2023/06/10 01:38:43;;;;;;;5.88;4.75;;;;;;;;;;5077963;28;20213;-91
2023/06/10 01:41:11;;;;;;;5.05;4.65;;;;;;;;;;5069109;28;20195;-91
2023/06/10 01:43:39;;;;;;;5.30;4.90;;;;;;;;;;5067024;28;20205;-91
2023/06/10 01:46:07;;;;;;;5.13;4.72;;;;;;;;;;5073079;28;20199;-91
2023/06/10 01:48:34;;;;;;;4.93;4.47;;;;;;;;;;5073049;28;20224;-91
2023/06/10 01:51:02;;;;;;;5.07;4.68;;;;;;;;;;5074852;28;20230;-90
2023/06/10 01:53:29;;;;;;;5.10;4.70;;;;;;;;;;5086225;28;20194;-91
2023/06/10 01:55:58;;;;;;;5.18;4.68;;;;;;;;;;5079276;28;20203;-91
2023/06/10 01:58:25;;;;;;;5.22;4.72;;;;;;;;;;5074063;28;20293;-90
2023/06/10 02:00:53;;;;;;;6.53;5.35;;;;;;;;;;5072170;28;20211;-90
2023/06/10 02:03:20;;;;;;;4.85;4.50;;;;;;;;;;5075084;28;20203;-90
2023/06/10 02:05:47;;;;;;;4.90;4.50;;;;;;;;;;5065639;28;20272;-90
2023/06/10 02:08:15;;;;;;;4.97;4.57;;;;;;;;;;5068913;28;20218;-91
2023/06/10 02:10:42;;;;;;;5.05;4.65;;;;;;;;;;5068081;28;20214;-90
2023/06/10 02:13:11;;;;;;;5.00;4.60;;;;;;;;;;5072600;28;20206;-90
2023/06/10 02:15:38;;;;;;;5.15;4.75;;;;;;;;;;5067089;28;20218;-90
2023/06/10 02:18:06;;;;;;;4.93;4.53;;;;;;;;;;5067195;28;20207;-90
2023/06/10 02:20:33;;;;;;;5.25;4.45;;;;;;;;;;5068045;28;20237;-90
2023/06/10 02:23:01;;;;;;;4.82;4.43;;;;;;;;;;5070403;28;20210;-91
2023/06/10 02:25:28;;;;;;;4.70;4.40;;;;;;;;;;5067408;28;20277;-90
2023/06/10 02:27:56;;;;;;;5.38;4.88;;;;;;;;;;5069640;28;20214;-90
2023/06/10 02:30:24;;;;;;;5.13;4.72;;;;;;;;;;5066259;28;20206;-91
2023/06/10 02:32:52;;;;;;;5.93;4.90;;;;;;;;;;5071329;28;20211;-91
2023/06/10 02:35:20;;;;;;;5.60;4.70;;;;;;;;;;5065898;28;20206;-91
2023/06/10 02:37:47;;;;;;;4.93;4.53;;;;;;;;;;5069141;28;20285;-90
2023/06/10 02:40:14;;;;;;;5.80;4.72;;;;;;;;;;5070655;28;20199;-90
2023/06/10 02:42:42;;;;;;;6.40;4.88;;;;;;;;;;5067256;28;20218;-91
2023/06/10 02:45:10;;;;;;;5.28;4.38;;;;;;;;;;5068347;28;20202;-90
2023/06/10 02:47:39;;;;;;;5.03;4.72;;;;;;;;;;5046187;28;20213;-91
2023/06/10 02:50:07;;;;;;;5.15;4.72;;;;;;;;;;5065901;28;20206;-90
2023/06/10 02:52:35;;;;;;;6.75;4.90;;;;;;;;;;5066719;28;20225;-90
2023/06/10 02:55:02;;;;;;;5.38;4.70;;;;;;;;;;5048602;28;20206;-90
2023/06/10 02:57:29;;;;;;;4.82;4.53;;;;;;;;;;5059422;28;20198;-90
2023/06/10 02:59:58;;;;;;;5.82;5.32;;;;;;;;;;5065296;28;20215;-91
2023/06/10 03:02:28;;;;;;;5.00;4.60;;;;;;;;;;5072336;28;20206;-90
2023/06/10 03:04:56;;;;;;;5.45;4.95;;;;;;;;;;5060473;28;20238;-90
2023/06/10 03:07:24;;;;;;;5.20;4.80;;;;;;;;;;5069013;28;20222;-90
2023/06/10 03:09:51;;;;;;;4.50;4.20;;;;;;;;;;5070232;28;20202;-91
2023/06/10 03:12:18;;;;;;;4.88;4.47;;;;;;;;;;5066052;28;20238;-90
2023/06/10 03:14:46;;;;;;;4.53;4.13;;;;;;;;;;5071826;28;20217;-90
2023/06/10 03:17:13;;;;;;;5.38;4.97;;;;;;;;;;5062589;28;20199;-90
2023/06/10 03:19:40;;;;;;;5.18;4.75;;;;;;;;;;5069408;28;20237;-91
2023/06/10 03:22:13;;;;;;;5.68;5.18;;;;;;;;;;5073930;28;20309;-90
2023/06/10 03:24:41;;;;;;;5.30;4.80;;;;;;;;;;5077617;28;20195;-91
2023/06/10 03:27:09;;;;;;;5.18;4.40;;;;;;;;;;5068130;28;20199;-91
2023/06/10 03:29:36;;;;;;;4.90;4.50;;;;;;;;;;5070366;28;20342;-91
2023/06/10 03:32:04;;;;;;;5.07;4.50;;;;;;;;;;5067024;28;20227;-90
2023/06/10 03:34:31;;;;;;;7.00;4.90;;;;;;;;;;5064303;28;20195;-90
2023/06/10 03:36:58;;;;;;;5.20;4.90;;;;;;;;;;5071004;28;20198;-91
2023/06/10 03:39:28;;;;;;;5.32;4.82;;;;;;;;;;5060669;28;20267;-91
2023/06/10 03:41:56;;;;;;;5.03;4.63;;;;;;;;;;5070787;28;20264;-91
2023/06/10 03:44:23;;;;;;;5.10;4.68;;;;;;;;;;5069834;28;20279;-91
2023/06/10 03:46:51;;;;;;;4.80;4.50;;;;;;;;;;5078016;28;20202;-91
2023/06/10 03:49:19;;;;;;;5.72;5.20;;;;;;;;;;5078181;28;20198;-91
2023/06/10 03:51:46;;;;;;;5.50;5.00;;;;;;;;;;5068585;28;20224;-91
2023/06/10 03:54:13;;;;;;;5.60;4.80;;;;;;;;;;5071788;28;20198;-90
2023/06/10 03:56:42;;;;;;;5.38;4.90;;;;;;;;;;5072069;28;20285;-91
2023/06/10 03:59:10;;;;;;;6.05;4.82;;;;;;;;;;5070401;28;20302;-90
2023/06/10 04:01:37;;;;;;;5.45;4.95;;;;;;;;;;5075550;28;20288;-90
2023/06/10 04:04:04;;;;;;;5.53;5.03;;;;;;;;;;5076726;28;20217;-91
2023/06/10 04:06:31;;;;;;;6.20;5.03;;;;;;;;;;5069020;28;20236;-90
2023/06/10 04:08:59;;;;;;;5.60;5.10;;;;;;;;;;5062422;28;20283;-90
2023/06/10 04:11:26;;;;;;;5.32;4.82;;;;;;;;;;5063864;28;20428;-90
2023/06/10 04:13:55;;;;;;;5.70;5.20;;;;;;;;;;5071670;28;20293;-90
2023/06/10 04:16:22;;;;;;;5.18;4.68;;;;;;;;;;5067720;28;20210;-90
2023/06/10 04:18:50;;;;;;;5.35;4.93;;;;;;;;;;5063243;28;20238;-90
2023/06/10 04:21:17;;;;;;;5.30;4.90;;;;;;;;;;5067047;28;20205;-90
2023/06/10 04:23:44;;;;;;;7.15;4.93;;;;;;;;;;5061501;28;20211;-90
2023/06/10 04:26:12;;;;;;;5.72;5.20;;;;;;;;;;5066881;28;20290;-90
2023/06/10 04:28:39;;;;;;;5.35;4.85;;;;;;;;;;5071591;28;20203;-90
2023/06/10 04:31:08;;;;;;;5.53;4.97;;;;;;;;;;5071833;28;20210;-90
2023/06/10 04:33:35;;;;;;;5.50;4.93;;;;;;;;;;5069143;28;20203;-90
2023/06/10 04:36:02;;;;;;;5.60;5.18;;;;;;;;;;5075528;28;20199;-91
2023/06/10 04:38:30;;;;;;;4.90;4.50;;;;;;;;;;5070029;28;20281;-91
2023/06/10 04:40:57;;;;;;;5.15;4.75;;;;;;;;;;5048350;28;20202;-90
2023/06/10 04:43:25;;;;;;;5.53;4.90;;;;;;;;;;5062243;28;20214;-90
2023/06/10 04:45:52;;;;;;;5.40;4.90;;;;;;;;;;5067926;28;20203;-91
2023/06/10 04:48:21;;;;;;;5.22;4.82;;;;;;;;;;5063889;28;20302;-90
2023/06/10 04:50:48;;;;;;;4.80;4.40;;;;;;;;;;5064642;28;20217;-90
2023/06/10 04:53:16;;;;;;;5.85;5.00;;;;;;;;;;5066988;28;20229;-90
2023/06/10 04:55:43;;;;;;;5.30;4.90;;;;;;;;;;5064374;28;20265;-91
2023/06/10 04:58:11;;;;;;;5.60;5.00;;;;;;;;;;5069655;28;20203;-90
2023/06/10 05:00:38;;;;;;;5.40;4.90;;;;;;;;;;5053597;28;20202;-91
2023/06/10 05:03:06;;;;;;;4.65;4.25;;;;;;;;;;5065493;28;20217;-90
2023/06/10 05:05:34;;;;;;;5.03;4.63;;;;;;;;;;5073773;28;20210;-91
2023/06/10 05:08:02;;;;;;;5.43;4.90;;;;;;;;;;5077782;28;20214;-90
2023/06/10 05:10:31;;;;;;;4.80;4.40;;;;;;;;;;5062139;28;20203;-90
2023/06/10 05:12:59;;;;;;;5.55;5.05;;;;;;;;;;5068612;28;20227;-90
2023/06/10 05:15:26;;;;;;;5.63;5.13;;;;;;;;;;5073381;28;20215;-90
2023/06/10 05:17:54;;;;;;;5.80;5.13;;;;;;;;;;5065586;28;20244;-90
2023/06/10 05:20:21;;;;;;;5.68;4.80;;;;;;;;;;5066457;28;20234;-90
2023/06/10 05:22:50;;;;;;;5.70;4.65;;;;;;;;;;5063820;28;20211;-90
2023/06/10 05:25:18;;;;;;;5.60;4.60;;;;;;;;;;5072860;28;20209;-90
2023/06/10 05:27:45;;;;;;;5.38;4.97;;;;;;;;;;5067552;28;20206;-90
2023/06/10 05:30:13;;;;;;;5.53;4.93;;;;;;;;;;5069245;28;20198;-90
2023/06/10 05:32:40;;;;;;;5.70;5.00;;;;;;;;;;5063481;28;20222;-90
2023/06/10 05:35:08;;;;;;;6.47;4.80;;;;;;;;;;5050815;28;20214;-90
2023/06/10 05:37:36;;;;;;;5.80;5.30;;;;;;;;;;5065998;28;20218;-90
2023/06/10 05:40:06;;;;;;;6.22;5.05;;;;;;;;;;5075918;28;20214;-91
2023/06/10 05:42:33;;;;;;;4.97;4.57;;;;;;;;;;5072695;28;20203;-91
2023/06/10 05:45:00;;;;;;;5.13;4.78;;;;;;;;;;5064041;28;20203;-90
2023/06/10 05:47:28;;;;;;;5.53;5.05;;;;;;;;;;5071484;28;20289;-91
2023/06/10 05:49:55;;;;;;;7.35;5.60;;;;;;;;;;5074235;28;20209;-91
2023/06/10 05:52:23;;;;;;;5.45;5.03;;;;;;;;;;5076470;28;20218;-91
2023/06/10 05:54:50;;;;;;;5.20;4.70;;;;;;;;;;5073536;28;20202;-91
2023/06/10 05:57:19;;;;;;;5.75;5.25;;;;;;;;;;5072848;28;20206;-92
2023/06/10 05:59:47;;;;;;;5.05;4.65;;;;;;;;;;5074407;28;20202;-91
2023/06/10 06:02:14;;;;;;;8.20;5.10;;;;;;;;;;5070682;28;20233;-91
2023/06/10 06:04:42;;;;;;;6.38;5.05;;;;;;;;;;5073818;28;20214;-92
2023/06/10 06:07:09;;;;;;;5.10;4.78;;;;;;;;;;5072365;28;20211;-91
2023/06/10 06:09:37;;;;;;;4.72;4.32;;;;;;;;;;5065632;28;20198;-91
2023/06/10 06:12:06;;;;;;;5.32;4.93;;;;;;;;;;5069246;28;20242;-92
2023/06/10 06:14:34;;;;;;;5.35;4.90;;;;;;;;;;5069673;28;20226;-91
2023/06/10 06:17:02;;;;;;;5.82;5.07;;;;;;;;;;5066809;28;20213;-91
2023/06/10 06:19:29;;;;;;;5.70;5.20;;;;;;;;;;5071037;28;20236;-91
2023/06/10 06:21:56;;;;;;;4.90;4.50;;;;;;;;;;5069451;28;20290;-91
2023/06/10 06:24:23;;;;;;;5.55;5.03;;;;;;;;;;5067978;28;20205;-91
2023/06/10 06:26:51;;;;;;;5.22;4.72;;;;;;;;;;5067959;28;20213;-92
2023/06/10 06:29:19;;;;;;;5.70;5.07;;;;;;;;;;5066927;28;20263;-90
2023/06/10 06:31:48;;;;;;;5.57;4.97;;;;;;;;;;5057342;28;20206;-90
2023/06/10 06:34:15;;;;;;;5.43;4.93;;;;;;;;;;5070969;28;20199;-91
2023/06/10 06:36:43;;;;;;;5.43;4.78;;;;;;;;;;5077648;28;20206;-91
2023/06/10 06:39:10;;;;;;;5.68;5.10;;;;;;;;;;5067240;28;20199;-93
2023/06/10 06:41:37;;;;;;;6.22;4.82;;;;;;;;;;5064838;28;20226;-93
2023/06/10 06:44:05;;;;;;;5.20;4.80;;;;;;;;;;5067780;28;20218;-92
2023/06/10 06:46:32;;;;;;;5.38;4.72;;;;;;;;;;5073440;28;20290;-92
2023/06/10 06:49:01;;;;;;;5.55;5.13;;;;;;;;;;5068452;28;20211;-91
2023/06/10 06:51:28;;;;;;;5.15;4.60;;;;;;;;;;5063711;28;20218;-91
2023/06/10 06:53:58;;;;;;;5.72;5.20;;;;;;;;;;5070008;28;20314;-90
2023/06/10 06:56:26;;;;;;;4.80;4.38;;;;;;;;;;5074644;28;20215;-91
2023/06/10 06:58:54;;;;;;;5.47;4.90;;;;;;;;;;5046085;28;20206;-91
2023/06/10 07:01:21;;;;;;;5.43;4.93;;;;;;;;;;5069033;28;20203;-92
2023/06/10 07:03:49;;;;;;;5.22;4.72;;;;;;;;;;5066246;28;20199;-92
2023/06/10 07:06:17;;;;;;;4.90;4.50;;;;;;;;;;5071257;28;20191;-91
2023/06/10 07:08:45;;;;;;;5.18;4.72;;;;;;;;;;5071543;28;20202;-92
2023/06/10 07:11:12;;;;;;;5.20;4.60;;;;;;;;;;5072361;28;20198;-91
2023/06/10 07:13:39;;;;;;;4.75;4.35;;;;;;;;;;5068521;28;20215;-90
2023/06/10 07:16:06;;;;;;;5.10;4.60;;;;;;;;;;5074675;28;20190;-91
2023/06/10 07:18:34;;;;;;;4.85;4.45;;;;;;;;;;5070906;28;20237;-90
2023/06/10 07:21:01;;;;;;;7.32;4.57;;;;;;;;;;5069486;28;20208;-91
2023/06/10 07:23:30;;;;;;;4.90;4.50;;;;;;;;;;5069686;28;20254;-91
2023/06/10 07:25:57;;;;;;;5.88;4.30;;;;;;;;;;5061391;28;20206;-91
2023/06/10 07:28:25;;;;;;;4.45;4.05;;;;;;;;;;5081607;28;20205;-91
2023/06/10 07:30:52;;;;;;;4.63;4.22;;;;;;;;;;5074115;28;20256;-91
2023/06/10 07:33:19;;;;;;;4.60;4.20;;;;;;;;;;5076528;28;20226;-93
2023/06/10 07:35:47;;;;;;;4.40;4.00;;;;;;;;;;5065622;28;20206;-91
2023/06/10 07:38:14;;;;;;;4.93;4.38;;;;;;;;;;5066960;28;20206;-91
2023/06/10 07:40:43;;;;;;;4.80;4.22;;;;;;;;;;5071485;28;20195;-92
2023/06/10 07:43:10;;;;;;;5.43;4.50;;;;;;;;;;5058085;28;20209;-92
2023/06/10 07:45:37;;;;;;;4.35;3.97;;;;;;;;;;5088948;28;20210;-92
2023/06/10 07:48:05;;;;;;;5.40;4.90;;;;;;;;;;5078526;28;20210;-93
2023/06/10 07:50:32;;;;;;;4.22;3.80;;;;;;;;;;5078175;28;20205;-92
2023/06/10 07:52:59;;;;;;;4.32;4.00;;;;;;;;;;5073045;28;20227;-92
2023/06/10 07:55:27;;;;;;;4.45;4.05;;;;;;;;;;5068771;28;20205;-92
2023/06/10 07:57:56;;;;;;;4.88;4.03;;;;;;;;;;5072796;28;20210;-93
2023/06/10 08:00:23;;;;;;;4.28;3.88;;;;;;;;;;5072589;28;20202;-92
2023/06/10 08:02:51;;;;;;;4.28;3.90;;;;;;;;;;5076082;28;20214;-93
2023/06/10 08:05:20;;;;;;;4.43;4.07;;;;;;;;;;5077988;28;20202;-92
2023/06/10 08:07:47;;;;;;;4.10;3.80;;;;;;;;;;5071483;28;20221;-92
2023/06/10 08:10:14;;;;;;;3.92;3.63;;;;;;;;;;5074001;28;20207;-92
2023/06/10 08:12:42;;;;;;;3.97;3.60;;;;;;;;;;5068674;28;20230;-92
2023/06/10 08:15:12;;;;;;;4.68;3.65;;;;;;;;;;5069380;28;20214;-91
2023/06/10 08:17:39;;;;;;;3.85;3.55;;;;;;;;;;5062420;28;20204;-92
2023/06/10 08:20:07;;;;;;;3.65;3.30;;;;;;;;;;5070599;28;20231;-91
2023/06/10 08:22:35;;;;;;;4.18;3.88;;;;;;;;;;5067716;28;20210;-91
2023/06/10 08:25:02;;;;;;;4.20;3.80;;;;;;;;;;5066849;28;20221;-92
2023/06/10 08:27:29;;;;;;;3.90;3.60;;;;;;;;;;5057834;28;20204;-92
2023/06/10 08:29:58;;;;;;;5.78;3.75;;;;;;;;;;5076499;28;20215;-91
2023/06/10 08:32:26;;;;;;;3.85;3.42;;;;;;;;;;5069134;28;20199;-92
2023/06/10 08:34:54;;;;;;;3.90;3.60;;;;;;;;;;5068214;28;20214;-92
2023/06/10 08:37:21;;;;;;;3.47;3.28;;;;;;;;;;5074837;28;20209;-92
2023/06/10 08:39:49;;;;;;;4.00;3.70;;;;;;;;;;5082132;28;20206;-92
2023/06/10 08:42:23;;;;;;;4.07;3.65;;;;;;;;;;5057277;28;20237;-92
2023/06/10 08:44:51;;;;;;;4.38;3.97;;;;;;;;;;5053525;28;20202;-92
2023/06/10 08:47:19;;;;;;;3.90;3.60;;;;;;;;;;5072200;28;20198;-92
2023/06/10 08:49:48;;;;;;;4.32;3.80;;;;;;;;;;5072239;28;20206;-92
2023/06/10 08:52:17;;;;;;;3.90;3.60;;;;;;;;;;5077045;28;20258;-92
2023/06/10 08:54:45;;;;;;;4.43;4.03;;;;;;;;;;5067696;28;20276;-93
2023/06/10 08:57:14;;;;;;;4.22;3.92;;;;;;;;;;5067734;28;20211;-92
2023/06/10 08:59:42;;;;;;;4.22;3.90;;;;;;;;;;5076385;28;20206;-92
2023/06/10 09:02:10;;;;;;;4.30;3.90;;;;;;;;;;5073714;28;20195;-92
2023/06/10 09:04:38;;;;;;;4.28;3.58;;;;;;;;;;5074626;28;20209;-92
2023/06/10 09:07:08;;;;;;;5.68;4.25;;;;;;;;;;5055887;28;20214;-91
2023/06/10 09:09:36;;;;;;;4.63;4.10;;;;;;;;;;5076916;28;20198;-93
2023/06/10 09:12:04;;;;;;;4.20;3.90;;;;;;;;;;5069052;28;20218;-92
2023/06/10 09:14:31;;;;;;;4.50;3.85;;;;;;;;;;5060066;28;20269;-92
2023/06/10 09:16:59;;;;;;;4.18;3.78;;;;;;;;;;5070227;28;20202;-92
2023/06/10 09:19:27;;;;;;;4.10;3.60;;;;;;;;;;5074244;28;20231;-92
2023/06/10 09:21:54;;;;;;;4.20;3.90;;;;;;;;;;5075324;28;20211;-92
2023/06/10 09:24:24;;;;;;;4.05;3.65;;;;;;;;;;5070888;28;20199;-91
2023/06/10 09:26:52;;;;;;;4.07;3.70;;;;;;;;;;5068719;28;20217;-92
2023/06/10 09:29:19;;;;;;;5.13;3.67;;;;;;;;;;5046321;28;20198;-93
2023/06/10 09:31:46;;;;;;;4.85;3.65;;;;;;;;;;5067307;28;20290;-93
2023/06/10 09:34:14;;;;;;;3.60;3.40;;;;;;;;;;5065605;28;20214;-93
2023/06/10 09:36:42;;;;;;;4.07;3.72;;;;;;;;;;5079873;28;20258;-92
2023/06/10 09:39:15;;;;;;;4.05;3.63;;;;;;;;;;5070254;28;20203;-92
2023/06/10 09:41:45;;;;;;;4.50;4.10;;;;;;;;;;5057442;28;20195;-92
2023/06/10 09:44:14;;;;;;;5.43;3.78;;;;;;;;;;5060090;28;20203;-92
2023/06/10 09:46:41;;;;;;;3.67;3.30;;;;;;;;;;5074522;28;20207;-92
2023/06/10 09:49:09;;;;;;;3.40;3.20;;;;;;;;;;5076607;28;20213;-91
2023/06/10 09:51:36;;;;;;;4.25;3.80;;;;;;;;;;5078338;28;20241;-92
2023/06/10 09:54:04;;;;;;;4.60;3.78;;;;;;;;;;5074602;28;20253;-91
2023/06/10 09:56:36;;;;;;;4.50;4.10;;;;;;;;;;5083393;28;20201;-92
2023/06/10 09:59:06;;;;;;;3.75;3.55;;;;;;;;;;5082338;28;20206;-92
2023/06/10 10:01:34;;;;;;;7.03;3.85;;;;;;;;;;5082857;28;20194;-92
2023/06/10 10:04:01;;;;;;;3.88;3.50;;;;;;;;;;5073990;28;20203;-92
2023/06/10 10:06:30;;;;;;;3.85;3.50;;;;;;;;;;5066828;28;20203;-91
2023/06/10 10:08:58;;;;;;;4.10;3.60;;;;;;;;;;5067499;28;20230;-91
2023/06/10 10:11:27;;;;;;;4.85;3.97;;;;;;;;;;5060531;28;20207;-91
2023/06/10 10:13:54;;;;;;;4.40;3.97;;;;;;;;;;5063684;28;20220;-91
2023/06/10 10:16:27;;;;;;;4.60;3.50;;;;;;;;;;5068347;28;20257;-92
2023/06/10 10:18:57;;;;;;;4.18;3.78;;;;;;;;;;5069991;28;20290;-92
2023/06/10 10:21:30;;;;;;;4.20;3.80;;;;;;;;;;5069665;28;20257;-92
2023/06/10 10:24:02;;;;;;;4.97;3.88;;;;;;;;;;5071149;28;20207;-92
2023/06/10 10:26:32;;;;;;;3.45;3.25;;;;;;;;;;5067392;28;20207;-92
2023/06/10 10:29:05;;;;;;;4.10;3.50;;;;;;;;;;5066132;28;20260;-92
2023/06/10 10:31:37;;;;;;;3.70;3.05;;;;;;;;;;5071967;28;20294;-91
2023/06/10 10:34:06;;;;;;;4.00;3.70;;;;;;;;;;5069256;28;20219;-91
2023/06/10 10:36:35;;;;;;;3.67;3.38;;;;;;;;;;5069155;28;20205;-92
2023/06/10 10:39:04;;;;;;;3.88;3.58;;;;;;;;;;5063591;28;20261;-92
2023/06/10 10:41:33;;;;;;;4.03;3.70;;;;;;;;;;5067781;28;20202;-91
2023/06/10 10:44:01;;;;;;;4.20;3.28;;;;;;;;;;5069776;28;20205;-91
2023/06/10 10:46:30;;;;;;;6.97;3.25;;;;;;;;;;5071663;28;20199;-92
2023/06/10 10:49:00;;;;;;;3.78;3.45;;;;;;;;;;5066781;28;20270;-92
2023/06/10 10:51:27;;;;;;;3.42;3.10;;;;;;;;;;5064027;28;20274;-91
2023/06/10 10:54:14;;;;;;;6.68;3.15;;;;;;;;;;5067857;28;20218;-90
2023/06/10 10:57:04;;;;;;;3.22;3.03;;;;;;;;;;5073028;28;20275;-90
2023/06/10 10:59:45;;;;;;;3.03;2.80;;;;;;;;;;5068988;28;20202;-92
2023/06/10 11:02:18;;;;;;;5.85;3.20;;;;;;;;;;5067260;28;20221;-92
2023/06/10 11:04:51;;;;;;;6.30;2.83;;;;;;;;;;5062126;28;20203;-92
2023/06/10 11:07:22;;;;;;;6.25;2.97;;;;;;;;;;5050276;28;20214;-92
2023/06/10 11:10:02;;;;;;;3.33;3.03;;;;;;;;;;5064601;28;20197;-90
2023/06/10 11:12:42;;;;;;;6.80;3.10;;;;;;;;;;5064404;28;20284;-90
2023/06/10 11:15:10;;;;;;;5.72;2.72;;;;;;;;;;5067845;28;20222;-92
2023/06/10 11:17:38;;;;;;;2.88;2.58;;;;;;;;;;5068160;28;20203;-90
2023/06/10 11:20:09;;;;;;;3.05;2.80;;;;;;;;;;5069170;28;20314;-90
2023/06/10 11:22:57;;;;;;;4.53;3.13;;;;;;;;;;5066530;28;20353;-90
2023/06/10 11:25:40;;;;;;;2.92;2.70;;;;;;;;;;5057580;28;20218;-90
2023/06/10 11:28:19;;;;;;;2.80;2.30;;;;;;;;;;5070114;28;20203;-91
2023/06/10 11:30:46;;;;;;;2.70;2.50;;;;;;;;;;5066676;28;20205;-91
2023/06/10 11:33:17;;;;;;;3.08;2.88;;;;;;;;;;5069311;28;20254;-93
2023/06/10 11:35:45;;;;;;;4.30;2.83;;;;;;;;;;5068181;28;20252;-90
2023/06/10 11:38:13;;;;;;;3.13;2.47;;;;;;;;;;5068080;28;20224;-90
2023/06/10 11:40:40;;;;;;;5.18;2.70;;;;;;;;;;5078101;28;20218;-91
2023/06/10 11:43:08;;;;;;;4.45;2.60;;;;;;;;;;5054291;28;20217;-91
2023/06/10 11:45:36;;;;;;;2.90;2.58;;;;;;;;;;5063098;28;20207;-90
2023/06/10 11:48:03;;;;;;;3.13;2.75;;;;;;;;;;5053229;28;20203;-91
2023/06/10 11:50:31;;;;;;;2.97;2.75;;;;;;;;;;5077139;28;20264;-90
2023/06/10 11:53:00;;;;;;;3.55;2.58;;;;;;;;;;5046557;28;20218;-91
2023/06/10 11:55:27;;;;;;;2.75;2.55;;;;;;;;;;5066954;28;20229;-91
2023/06/10 11:57:57;;;;;;;4.05;2.45;;;;;;;;;;5069342;28;20206;-90
2023/06/10 12:00:25;;;;;;;4.63;2.50;;;;;;;;;;5080974;28;20210;-92
2023/06/10 12:02:59;;;;;;;4.03;2.38;;;;;;;;;;5067577;28;20191;-90
2023/06/10 12:05:26;;;;;;;2.83;2.63;;;;;;;;;;5070776;28;20195;-91
2023/06/10 12:08:08;;;;;;;3.25;2.40;;;;;;;;;;5066639;28;20206;-91
2023/06/10 12:10:42;;;;;;;2.60;2.40;;;;;;;;;;5065531;28;20191;-91
2023/06/10 12:13:09;;;;;;;2.80;2.60;;;;;;;;;;5069290;28;20199;-91
2023/06/10 12:15:37;;;;;;;3.95;2.88;;;;;;;;;;5075258;28;20217;-90
2023/06/10 12:18:04;;;;;;;2.70;2.50;;;;;;;;;;5075808;28;20194;-90
2023/06/10 12:20:33;;;;;;;3.40;2.33;;;;;;;;;;5071508;28;20281;-92
2023/06/10 12:23:01;;;;;;;2.85;2.50;;;;;;;;;;5067855;28;20195;-91
2023/06/10 12:25:29;;;;;;;2.70;2.35;;;;;;;;;;5070995;28;20190;-90
2023/06/10 12:27:58;;;;;;;4.00;2.47;;;;;;;;;;5068071;28;20199;-94
2023/06/10 12:30:26;;;;;;;2.60;2.40;;;;;;;;;;5065313;28;20233;-92
2023/06/10 12:32:53;;;;;;;3.88;2.63;;;;;;;;;;5069852;28;20228;-92
2023/06/10 12:35:21;;;;;;;2.80;2.60;;;;;;;;;;5066769;28;20226;-90
2023/06/10 12:37:56;;;;;;;3.13;2.78;;;;;;;;;;5074355;28;20203;-91
2023/06/10 12:40:27;;;;;;;3.83;2.65;;;;;;;;;;5075748;28;20212;-91
2023/06/10 12:42:55;;;;;;;3.00;2.45;;;;;;;;;;5052763;28;20206;-93
2023/06/10 12:45:29;;;;;;;2.63;2.40;;;;;;;;;;5073488;28;20202;-91
2023/06/10 12:48:07;;;;;;;2.85;2.55;;;;;;;;;;5074784;28;20216;-92
2023/06/10 12:50:34;;;;;;;2.70;2.50;;;;;;;;;;5069163;28;20206;-91
2023/06/10 12:53:02;;;;;;;2.85;2.50;;;;;;;;;;5074368;28;20260;-94
2023/06/10 12:55:29;;;;;;;2.72;2.53;;;;;;;;;;5071095;28;20225;-94
2023/06/10 12:57:57;;;;;;;3.60;2.70;;;;;;;;;;5070989;28;20199;-93
2023/06/10 13:00:25;;;;;;;4.57;2.75;;;;;;;;;;5070308;28;20214;-93
2023/06/10 13:02:55;;;;;;;3.28;3.08;;;;;;;;;;5074866;28;20297;-93
2023/06/10 13:05:22;;;;;;;3.22;3.00;;;;;;;;;;5064125;28;20213;-93
2023/06/10 13:07:50;;;;;;;2.80;2.58;;;;;;;;;;5075819;28;20281;-92
2023/06/10 13:10:18;;;;;;;3.20;2.90;;;;;;;;;;5067745;28;20191;-93
2023/06/10 13:12:46;;;;;;;3.17;2.85;;;;;;;;;;5065171;28;20202;-93
2023/06/10 13:15:14;;;;;;;3.10;2.80;;;;;;;;;;5070767;28;20211;-92
2023/06/10 13:17:41;;;;;;;3.58;3.10;;;;;;;;;;5075991;28;20260;-93
2023/06/10 13:20:11;;;;;;;6.35;3.15;;;;;;;;;;5076114;28;20248;-92
2023/06/10 13:22:38;;;;;;;2.85;2.60;;;;;;;;;;5073414;28;20207;-93
2023/06/10 13:25:07;;;;;;;3.85;2.80;;;;;;;;;;5076221;28;20186;-93
2023/06/10 13:27:35;;;;;;;3.25;2.95;;;;;;;;;;5068401;28;20241;-92
2023/06/10 13:30:02;;;;;;;3.47;2.90;;;;;;;;;;5085474;28;20222;-92
2023/06/10 13:32:30;;;;;;;3.65;2.97;;;;;;;;;;5079164;28;20212;-93
2023/06/10 13:34:57;;;;;;;3.83;3.00;;;;;;;;;;5064038;28;20226;-92
2023/06/10 13:37:26;;;;;;;3.30;3.00;;;;;;;;;;5075822;28;20216;-93
2023/06/10 13:39:53;;;;;;;2.92;2.72;;;;;;;;;;5060113;28;20207;-93
2023/06/10 13:42:21;;;;;;;3.00;2.60;;;;;;;;;;5069811;28;20282;-93
2023/06/10 13:44:49;;;;;;;3.15;2.95;;;;;;;;;;5055595;28;20245;-93
2023/06/10 13:47:16;;;;;;;4.28;3.08;;;;;;;;;;5060126;28;20211;-93
2023/06/10 13:49:43;;;;;;;3.00;2.80;;;;;;;;;;5074996;28;20203;-92
2023/06/10 13:52:11;;;;;;;3.90;3.30;;;;;;;;;;5067259;28;20293;-93
2023/06/10 13:54:40;;;;;;;3.42;3.13;;;;;;;;;;5077305;28;20235;-93
2023/06/10 13:57:09;;;;;;;3.95;3.13;;;;;;;;;;5056050;28;20211;-93
2023/06/10 13:59:37;;;;;;;3.13;2.90;;;;;;;;;;5067239;28;20263;-92
2023/06/10 14:02:05;;;;;;;3.10;2.80;;;;;;;;;;5070629;28;20211;-92
2023/06/10 14:04:32;;;;;;;3.70;3.03;;;;;;;;;;5046577;28;20202;-93
2023/06/10 14:07:00;;;;;;;3.28;2.85;;;;;;;;;;5048785;28;20199;-92
2023/06/10 14:09:28;;;;;;;3.25;2.95;;;;;;;;;;5068583;28;20222;-92
2023/06/10 14:11:57;;;;;;;3.38;2.88;;;;;;;;;;5066627;28;20333;-92
2023/06/10 14:14:25;;;;;;;2.88;2.65;;;;;;;;;;5068156;28;20206;-92
2023/06/10 14:16:52;;;;;;;6.15;2.92;;;;;;;;;;5066995;28;20211;-93
2023/06/10 14:19:19;;;;;;;3.40;2.65;;;;;;;;;;5060437;28;20227;-93
2023/06/10 14:21:47;;;;;;;3.17;2.90;;;;;;;;;;5066618;28;20214;-93
2023/06/10 14:24:14;;;;;;;4.03;2.50;;;;;;;;;;5072815;28;20234;-93
2023/06/10 14:26:41;;;;;;;4.43;2.80;;;;;;;;;;5059052;28;20195;-93
2023/06/10 14:29:13;;;;;;;3.00;2.70;;;;;;;;;;5065196;28;20213;-93
2023/06/10 14:31:41;;;;;;;4.10;3.05;;;;;;;;;;5056029;28;20202;-92
2023/06/10 14:34:08;;;;;;;4.90;2.80;;;;;;;;;;5074628;28;20214;-93
2023/06/10 14:36:36;;;;;;;3.58;2.80;;;;;;;;;;5075135;28;20305;-93
2023/06/10 14:39:04;;;;;;;3.17;2.88;;;;;;;;;;5058510;28;20199;-93
2023/06/10 14:41:32;;;;;;;4.95;2.95;;;;;;;;;;5040954;28;20206;-92
2023/06/10 14:43:59;;;;;;;3.50;3.03;;;;;;;;;;5067219;28;20198;-92
2023/06/10 14:46:28;;;;;;;3.00;2.80;;;;;;;;;;5048262;28;20206;-92
2023/06/10 14:48:55;;;;;;;3.05;2.85;;;;;;;;;;5072504;28;20243;-92
2023/06/10 14:51:22;;;;;;;3.30;3.10;;;;;;;;;;5073539;28;20202;-93